Terminal Aerodrome Forecast
Issued by NWS Bismarck, ND

Home | Current Version | Previous Version | Text Only | Print | Product List | Glossary Off
Versions: 1 2 3 4 5 6 7 8 9 10 11 12 13 14 15 16 17 18 19 20

000
FTUS43 KBIS 201730
TAFBIS
TAF
KBIS 201730Z 2018/2118 18012KT P6SM FEW100 FEW250
     FM210000 15014KT P6SM FEW110 SCT250
     FM210200 12011KT P6SM VCTS FEW120CB SCT250
     FM210500 14008KT P6SM SCT110 BKN250 WS020/18035KT
     FM210900 13005KT P6SM FEW100 SCT250 WS020/22030KT
     FM211200 13005KT P6SM FEW100 SCT250=

USA.gov is the U.S. government's official web portal to all federal, state and local government web resources and services.